Russett, Maryland
Current Conditions -  °F | °C
As of 7:48 AM on Tuesday 21 Oct 2014 (Local Time) from KFME Reporting Station
Clear Clear  
Wind Chill: 41°   Ceiling: Unl
Heat Index: 41°   Visibility: 4mi
Dew Point: 41°   Wind: 0mph
Humidity: 100%   Direction: NA
Pressure: 29.89"   Gusts: NA
Location:  39.0994°N, 76.8068°W
Report Text: KFME 211148Z AUTO 00000KT 4SM CLR 05/05 A2989 RMK AO1
Loading
Personal Weather Stations






























Interactive Weather Map
Tropical Storm Tracking
New forecast layout! Learn more

10-Day Weather Forecast

Advertisements
Track Severe Weather on mobile